sensor_id;sensor_type;location;lat;lon;timestamp;P1;durP1;ratioP1;P2;durP2;ratioP2
67804;SDS011;54603;45.638;11.714;2023-04-24T00:02:23;5.80;;;5.00;;
67804;SDS011;54603;45.638;11.714;2023-04-24T00:04:49;5.70;;;4.90;;
67804;SDS011;54603;45.638;11.714;2023-04-24T00:07:14;5.80;;;5.20;;
67804;SDS011;54603;45.638;11.714;2023-04-24T00:09:42;5.50;;;5.00;;
67804;SDS011;54603;45.638;11.714;2023-04-24T00:12:09;7.00;;;5.20;;
67804;SDS011;54603;45.638;11.714;2023-04-24T00:14:34;5.50;;;5.00;;
67804;SDS011;54603;45.638;11.714;2023-04-24T00:17:00;6.70;;;5.20;;
67804;SDS011;54603;45.638;11.714;2023-04-24T00:19:27;5.90;;;5.30;;
67804;SDS011;54603;45.638;11.714;2023-04-24T00:21:53;5.70;;;5.20;;
67804;SDS011;54603;45.638;11.714;2023-04-24T00:24:19;5.90;;;5.20;;
67804;SDS011;54603;45.638;11.714;2023-04-24T00:26:45;5.30;;;4.80;;
67804;SDS011;54603;45.638;11.714;2023-04-24T00:29:11;5.40;;;4.90;;
67804;SDS011;54603;45.638;11.714;2023-04-24T00:31:36;5.30;;;4.80;;
67804;SDS011;54603;45.638;11.714;2023-04-24T00:34:02;5.60;;;5.00;;
67804;SDS011;54603;45.638;11.714;2023-04-24T00:36:28;5.40;;;4.90;;
67804;SDS011;54603;45.638;11.714;2023-04-24T00:38:54;5.80;;;5.20;;
67804;SDS011;54603;45.638;11.714;2023-04-24T00:41:20;5.40;;;4.80;;
67804;SDS011;54603;45.638;11.714;2023-04-24T00:43:47;5.10;;;4.60;;
67804;SDS011;54603;45.638;11.714;2023-04-24T00:46:12;5.80;;;4.80;;
67804;SDS011;54603;45.638;11.714;2023-04-24T00:48:39;5.20;;;4.70;;
67804;SDS011;54603;45.638;11.714;2023-04-24T00:51:05;5.90;;;5.00;;
67804;SDS011;54603;45.638;11.714;2023-04-24T00:53:31;6.50;;;5.00;;
67804;SDS011;54603;45.638;11.714;2023-04-24T00:55:56;5.60;;;5.10;;
67804;SDS011;54603;45.638;11.714;2023-04-24T00:58:22;5.10;;;4.60;;
67804;SDS011;54603;45.638;11.714;2023-04-24T01:00:48;5.30;;;4.70;;
67804;SDS011;54603;45.638;11.714;2023-04-24T01:03:15;5.60;;;5.10;;
67804;SDS011;54603;45.638;11.714;2023-04-24T01:05:41;5.40;;;4.70;;
67804;SDS011;54603;45.638;11.714;2023-04-24T01:08:07;5.20;;;4.70;;
67804;SDS011;54603;45.638;11.714;2023-04-24T01:10:33;5.50;;;4.80;;
67804;SDS011;54603;45.638;11.714;2023-04-24T01:13:00;5.30;;;4.80;;
67804;SDS011;54603;45.638;11.714;2023-04-24T01:15:25;5.40;;;4.80;;
67804;SDS011;54603;45.638;11.714;2023-04-24T01:17:51;5.80;;;5.20;;
67804;SDS011;54603;45.638;11.714;2023-04-24T01:20:17;5.90;;;5.30;;
67804;SDS011;54603;45.638;11.714;2023-04-24T01:22:42;6.00;;;5.30;;
67804;SDS011;54603;45.638;11.714;2023-04-24T01:25:08;6.40;;;5.30;;
67804;SDS011;54603;45.638;11.714;2023-04-24T01:27:34;5.90;;;5.00;;
67804;SDS011;54603;45.638;11.714;2023-04-24T01:29:59;5.50;;;4.90;;
67804;SDS011;54603;45.638;11.714;2023-04-24T01:32:25;5.30;;;4.80;;
67804;SDS011;54603;45.638;11.714;2023-04-24T01:34:51;6.00;;;5.40;;
67804;SDS011;54603;45.638;11.714;2023-04-24T01:37:17;6.70;;;5.90;;
67804;SDS011;54603;45.638;11.714;2023-04-24T01:39:43;5.70;;;4.80;;
67804;SDS011;54603;45.638;11.714;2023-04-24T01:42:09;7.00;;;5.20;;
67804;SDS011;54603;45.638;11.714;2023-04-24T01:44:34;5.60;;;5.00;;
67804;SDS011;54603;45.638;11.714;2023-04-24T01:47:00;6.20;;;5.40;;
67804;SDS011;54603;45.638;11.714;2023-04-24T01:49:27;5.20;;;4.70;;
67804;SDS011;54603;45.638;11.714;2023-04-24T01:51:52;5.70;;;4.90;;
67804;SDS011;54603;45.638;11.714;2023-04-24T01:54:18;6.70;;;5.10;;
67804;SDS011;54603;45.638;11.714;2023-04-24T01:56:44;7.90;;;5.20;;
67804;SDS011;54603;45.638;11.714;2023-04-24T01:59:11;5.50;;;5.00;;
67804;SDS011;54603;45.638;11.714;2023-04-24T02:01:37;5.20;;;4.70;;
67804;SDS011;54603;45.638;11.714;2023-04-24T02:04:04;4.90;;;4.40;;
67804;SDS011;54603;45.638;11.714;2023-04-24T02:06:30;5.30;;;4.80;;
67804;SDS011;54603;45.638;11.714;2023-04-24T02:08:59;5.50;;;4.80;;
67804;SDS011;54603;45.638;11.714;2023-04-24T02:11:25;5.80;;;5.10;;
67804;SDS011;54603;45.638;11.714;2023-04-24T02:13:51;5.10;;;4.60;;
67804;SDS011;54603;45.638;11.714;2023-04-24T02:16:17;5.50;;;5.00;;
67804;SDS011;54603;45.638;11.714;2023-04-24T02:18:43;4.80;;;4.40;;
67804;SDS011;54603;45.638;11.714;2023-04-24T02:21:09;6.10;;;4.80;;
67804;SDS011;54603;45.638;11.714;2023-04-24T02:23:35;5.40;;;4.70;;
67804;SDS011;54603;45.638;11.714;2023-04-24T02:26:01;5.90;;;5.00;;
67804;SDS011;54603;45.638;11.714;2023-04-24T02:28:27;5.40;;;4.90;;
67804;SDS011;54603;45.638;11.714;2023-04-24T02:30:53;5.60;;;5.10;;
67804;SDS011;54603;45.638;11.714;2023-04-24T02:33:18;5.10;;;4.70;;
67804;SDS011;54603;45.638;11.714;2023-04-24T02:35:44;5.20;;;4.70;;
67804;SDS011;54603;45.638;11.714;2023-04-24T02:38:10;5.80;;;4.90;;
67804;SDS011;54603;45.638;11.714;2023-04-24T02:40:36;5.40;;;4.90;;
67804;SDS011;54603;45.638;11.714;2023-04-24T02:43:01;6.30;;;5.70;;
67804;SDS011;54603;45.638;11.714;2023-04-24T02:45:27;6.80;;;4.90;;
67804;SDS011;54603;45.638;11.714;2023-04-24T02:47:52;5.70;;;5.10;;
67804;SDS011;54603;45.638;11.714;2023-04-24T02:50:18;5.50;;;5.00;;
67804;SDS011;54603;45.638;11.714;2023-04-24T02:52:43;6.70;;;5.10;;
67804;SDS011;54603;45.638;11.714;2023-04-24T02:55:09;5.70;;;5.10;;
67804;SDS011;54603;45.638;11.714;2023-04-24T02:57:35;5.90;;;5.30;;
67804;SDS011;54603;45.638;11.714;2023-04-24T03:00:00;5.20;;;4.70;;
67804;SDS011;54603;45.638;11.714;2023-04-24T03:02:26;6.60;;;5.60;;
67804;SDS011;54603;45.638;11.714;2023-04-24T03:04:51;7.60;;;5.50;;
67804;SDS011;54603;45.638;11.714;2023-04-24T03:07:17;7.50;;;5.20;;
67804;SDS011;54603;45.638;11.714;2023-04-24T03:09:46;5.20;;;4.70;;
67804;SDS011;54603;45.638;11.714;2023-04-24T03:12:12;6.20;;;5.20;;
67804;SDS011;54603;45.638;11.714;2023-04-24T03:14:38;5.40;;;4.90;;
67804;SDS011;54603;45.638;11.714;2023-04-24T03:17:03;5.50;;;4.90;;
67804;SDS011;54603;45.638;11.714;2023-04-24T03:19:29;4.80;;;4.40;;
67804;SDS011;54603;45.638;11.714;2023-04-24T03:21:55;7.50;;;4.60;;
67804;SDS011;54603;45.638;11.714;2023-04-24T03:24:20;5.40;;;4.90;;
67804;SDS011;54603;45.638;11.714;2023-04-24T03:26:46;5.20;;;4.70;;
67804;SDS011;54603;45.638;11.714;2023-04-24T03:29:11;5.60;;;5.10;;
67804;SDS011;54603;45.638;11.714;2023-04-24T03:31:37;5.20;;;4.60;;
67804;SDS011;54603;45.638;11.714;2023-04-24T03:34:04;5.00;;;4.50;;
67804;SDS011;54603;45.638;11.714;2023-04-24T03:36:30;4.70;;;4.20;;
67804;SDS011;54603;45.638;11.714;2023-04-24T03:38:57;5.00;;;4.50;;
67804;SDS011;54603;45.638;11.714;2023-04-24T03:41:23;5.20;;;4.80;;
67804;SDS011;54603;45.638;11.714;2023-04-24T03:43:51;4.80;;;4.30;;
67804;SDS011;54603;45.638;11.714;2023-04-24T03:46:18;5.30;;;4.40;;
67804;SDS011;54603;45.638;11.714;2023-04-24T03:48:44;6.40;;;4.90;;
67804;SDS011;54603;45.638;11.714;2023-04-24T03:51:10;6.10;;;5.50;;
67804;SDS011;54603;45.638;11.714;2023-04-24T03:53:40;5.40;;;4.70;;
67804;SDS011;54603;45.638;11.714;2023-04-24T03:56:10;4.90;;;4.50;;
67804;SDS011;54603;45.638;11.714;2023-04-24T03:58:37;6.10;;;4.60;;
67804;SDS011;54603;45.638;11.714;2023-04-24T04:01:03;4.90;;;4.50;;
67804;SDS011;54603;45.638;11.714;2023-04-24T04:03:29;4.60;;;4.20;;
67804;SDS011;54603;45.638;11.714;2023-04-24T04:05:54;4.90;;;4.50;;
67804;SDS011;54603;45.638;11.714;2023-04-24T04:08:20;4.70;;;4.30;;
67804;SDS011;54603;45.638;11.714;2023-04-24T04:10:46;4.90;;;4.40;;
67804;SDS011;54603;45.638;11.714;2023-04-24T04:13:11;4.80;;;4.40;;
67804;SDS011;54603;45.638;11.714;2023-04-24T04:15:37;8.20;;;4.80;;
67804;SDS011;54603;45.638;11.714;2023-04-24T04:18:03;4.50;;;4.10;;
67804;SDS011;54603;45.638;11.714;2023-04-24T04:20:28;5.80;;;5.20;;
67804;SDS011;54603;45.638;11.714;2023-04-24T04:22:54;4.70;;;4.20;;
67804;SDS011;54603;45.638;11.714;2023-04-24T04:25:20;5.00;;;4.50;;
67804;SDS011;54603;45.638;11.714;2023-04-24T04:27:46;5.50;;;4.60;;
67804;SDS011;54603;45.638;11.714;2023-04-24T04:30:13;5.60;;;4.90;;
67804;SDS011;54603;45.638;11.714;2023-04-24T04:32:39;5.10;;;4.40;;
67804;SDS011;54603;45.638;11.714;2023-04-24T04:35:05;5.20;;;4.70;;
67804;SDS011;54603;45.638;11.714;2023-04-24T04:37:31;5.10;;;4.30;;
67804;SDS011;54603;45.638;11.714;2023-04-24T04:39:58;4.80;;;4.40;;
67804;SDS011;54603;45.638;11.714;2023-04-24T04:42:25;4.80;;;4.40;;
67804;SDS011;54603;45.638;11.714;2023-04-24T04:44:52;4.70;;;4.30;;
67804;SDS011;54603;45.638;11.714;2023-04-24T04:47:18;4.60;;;4.10;;
67804;SDS011;54603;45.638;11.714;2023-04-24T04:49:49;5.40;;;4.90;;
67804;SDS011;54603;45.638;11.714;2023-04-24T04:52:16;6.40;;;5.70;;
67804;SDS011;54603;45.638;11.714;2023-04-24T04:54:42;5.80;;;4.90;;
67804;SDS011;54603;45.638;11.714;2023-04-24T04:57:10;5.90;;;5.30;;
67804;SDS011;54603;45.638;11.714;2023-04-24T04:59:35;5.10;;;4.60;;
67804;SDS011;54603;45.638;11.714;2023-04-24T05:02:02;5.50;;;4.40;;
67804;SDS011;54603;45.638;11.714;2023-04-24T05:04:30;5.00;;;4.30;;
67804;SDS011;54603;45.638;11.714;2023-04-24T05:06:56;9.40;;;4.30;;
67804;SDS011;54603;45.638;11.714;2023-04-24T05:09:22;4.50;;;4.10;;
67804;SDS011;54603;45.638;11.714;2023-04-24T05:11:47;4.50;;;4.10;;
67804;SDS011;54603;45.638;11.714;2023-04-24T05:14:13;4.30;;;3.90;;
67804;SDS011;54603;45.638;11.714;2023-04-24T05:16:39;4.60;;;4.20;;
67804;SDS011;54603;45.638;11.714;2023-04-24T05:19:06;4.40;;;4.00;;
67804;SDS011;54603;45.638;11.714;2023-04-24T05:21:31;4.80;;;3.70;;
67804;SDS011;54603;45.638;11.714;2023-04-24T05:23:57;4.70;;;4.00;;
67804;SDS011;54603;45.638;11.714;2023-04-24T05:26:24;5.90;;;4.00;;
67804;SDS011;54603;45.638;11.714;2023-04-24T05:28:50;8.60;;;4.40;;
67804;SDS011;54603;45.638;11.714;2023-04-24T05:31:16;5.30;;;4.60;;
67804;SDS011;54603;45.638;11.714;2023-04-24T05:33:43;8.00;;;4.70;;
67804;SDS011;54603;45.638;11.714;2023-04-24T05:36:09;7.90;;;4.90;;
67804;SDS011;54603;45.638;11.714;2023-04-24T05:38:38;5.10;;;4.40;;
67804;SDS011;54603;45.638;11.714;2023-04-24T05:41:05;6.80;;;4.90;;
67804;SDS011;54603;45.638;11.714;2023-04-24T05:43:30;5.20;;;4.60;;
67804;SDS011;54603;45.638;11.714;2023-04-24T05:45:56;7.20;;;4.80;;
67804;SDS011;54603;45.638;11.714;2023-04-24T05:48:21;5.50;;;4.70;;
67804;SDS011;54603;45.638;11.714;2023-04-24T05:50:48;5.80;;;4.30;;
67804;SDS011;54603;45.638;11.714;2023-04-24T05:53:14;8.70;;;4.40;;
67804;SDS011;54603;45.638;11.714;2023-04-24T05:55:39;7.60;;;4.90;;
67804;SDS011;54603;45.638;11.714;2023-04-24T05:58:05;7.90;;;5.70;;
67804;SDS011;54603;45.638;11.714;2023-04-24T06:00:31;6.30;;;5.50;;
67804;SDS011;54603;45.638;11.714;2023-04-24T06:02:57;6.60;;;4.60;;
67804;SDS011;54603;45.638;11.714;2023-04-24T06:05:24;12.40;;;4.90;;
67804;SDS011;54603;45.638;11.714;2023-04-24T06:07:50;9.30;;;4.60;;
67804;SDS011;54603;45.638;11.714;2023-04-24T06:10:15;14.00;;;10.70;;
67804;SDS011;54603;45.638;11.714;2023-04-24T06:12:41;12.70;;;9.80;;
67804;SDS011;54603;45.638;11.714;2023-04-24T06:15:07;5.50;;;4.90;;
67804;SDS011;54603;45.638;11.714;2023-04-24T06:17:35;5.10;;;4.60;;
67804;SDS011;54603;45.638;11.714;2023-04-24T06:20:01;6.80;;;4.60;;
67804;SDS011;54603;45.638;11.714;2023-04-24T06:22:31;5.80;;;4.90;;
67804;SDS011;54603;45.638;11.714;2023-04-24T06:24:58;7.40;;;5.10;;
67804;SDS011;54603;45.638;11.714;2023-04-24T06:27:26;9.10;;;4.80;;
67804;SDS011;54603;45.638;11.714;2023-04-24T06:29:54;5.10;;;4.60;;
67804;SDS011;54603;45.638;11.714;2023-04-24T06:32:22;5.10;;;4.60;;
67804;SDS011;54603;45.638;11.714;2023-04-24T06:34:52;5.50;;;4.40;;
67804;SDS011;54603;45.638;11.714;2023-04-24T06:37:26;7.40;;;4.70;;
67804;SDS011;54603;45.638;11.714;2023-04-24T06:39:55;10.20;;;4.30;;
67804;SDS011;54603;45.638;11.714;2023-04-24T06:42:22;5.30;;;4.60;;
67804;SDS011;54603;45.638;11.714;2023-04-24T06:44:50;7.00;;;4.60;;
67804;SDS011;54603;45.638;11.714;2023-04-24T06:47:16;7.60;;;4.30;;
67804;SDS011;54603;45.638;11.714;2023-04-24T06:49:43;5.40;;;4.30;;
67804;SDS011;54603;45.638;11.714;2023-04-24T06:52:10;5.30;;;4.40;;
67804;SDS011;54603;45.638;11.714;2023-04-24T06:54:37;5.50;;;4.40;;
67804;SDS011;54603;45.638;11.714;2023-04-24T06:57:03;7.00;;;4.70;;
67804;SDS011;54603;45.638;11.714;2023-04-24T06:59:30;6.60;;;4.30;;
67804;SDS011;54603;45.638;11.714;2023-04-24T07:01:59;6.90;;;4.40;;
67804;SDS011;54603;45.638;11.714;2023-04-24T07:04:27;5.70;;;4.50;;
67804;SDS011;54603;45.638;11.714;2023-04-24T07:06:56;7.30;;;4.50;;
67804;SDS011;54603;45.638;11.714;2023-04-24T07:09:25;4.80;;;4.30;;
67804;SDS011;54603;45.638;11.714;2023-04-24T07:11:54;6.40;;;4.50;;
67804;SDS011;54603;45.638;11.714;2023-04-24T07:14:23;6.50;;;4.60;;
67804;SDS011;54603;45.638;11.714;2023-04-24T07:16:53;4.90;;;4.40;;
67804;SDS011;54603;45.638;11.714;2023-04-24T07:19:22;5.50;;;4.80;;
67804;SDS011;54603;45.638;11.714;2023-04-24T07:21:49;4.90;;;4.30;;
67804;SDS011;54603;45.638;11.714;2023-04-24T07:24:16;4.70;;;4.20;;
67804;SDS011;54603;45.638;11.714;2023-04-24T07:26:44;4.30;;;3.90;;
67804;SDS011;54603;45.638;11.714;2023-04-24T07:29:12;5.50;;;4.10;;
67804;SDS011;54603;45.638;11.714;2023-04-24T07:31:39;5.50;;;4.10;;
67804;SDS011;54603;45.638;11.714;2023-04-24T07:34:06;8.50;;;4.10;;
67804;SDS011;54603;45.638;11.714;2023-04-24T07:36:31;4.70;;;3.70;;
67804;SDS011;54603;45.638;11.714;2023-04-24T07:38:57;5.00;;;4.00;;
67804;SDS011;54603;45.638;11.714;2023-04-24T07:41:23;5.10;;;4.10;;
67804;SDS011;54603;45.638;11.714;2023-04-24T07:43:49;4.30;;;3.90;;
67804;SDS011;54603;45.638;11.714;2023-04-24T07:46:14;4.30;;;3.90;;
67804;SDS011;54603;45.638;11.714;2023-04-24T07:48:40;4.10;;;3.70;;
67804;SDS011;54603;45.638;11.714;2023-04-24T07:51:06;4.30;;;3.80;;
67804;SDS011;54603;45.638;11.714;2023-04-24T07:53:31;4.90;;;3.90;;
67804;SDS011;54603;45.638;11.714;2023-04-24T07:55:57;4.00;;;3.50;;
67804;SDS011;54603;45.638;11.714;2023-04-24T07:58:23;6.00;;;4.50;;
67804;SDS011;54603;45.638;11.714;2023-04-24T08:00:49;3.90;;;3.30;;
67804;SDS011;54603;45.638;11.714;2023-04-24T08:03:16;4.40;;;2.50;;
67804;SDS011;54603;45.638;11.714;2023-04-24T08:05:44;3.70;;;3.30;;
67804;SDS011;54603;45.638;11.714;2023-04-24T08:08:10;6.00;;;2.80;;
67804;SDS011;54603;45.638;11.714;2023-04-24T08:10:35;2.90;;;2.70;;
67804;SDS011;54603;45.638;11.714;2023-04-24T08:13:01;3.60;;;3.20;;
67804;SDS011;54603;45.638;11.714;2023-04-24T08:15:27;3.30;;;2.90;;
67804;SDS011;54603;45.638;11.714;2023-04-24T08:17:52;4.50;;;3.30;;
67804;SDS011;54603;45.638;11.714;2023-04-24T08:20:18;6.80;;;2.80;;
67804;SDS011;54603;45.638;11.714;2023-04-24T08:22:44;4.90;;;3.20;;
67804;SDS011;54603;45.638;11.714;2023-04-24T08:25:12;4.60;;;4.00;;
67804;SDS011;54603;45.638;11.714;2023-04-24T08:27:37;3.60;;;3.30;;
67804;SDS011;54603;45.638;11.714;2023-04-24T08:30:04;6.50;;;3.00;;
67804;SDS011;54603;45.638;11.714;2023-04-24T08:32:30;3.20;;;2.90;;
67804;SDS011;54603;45.638;11.714;2023-04-24T08:34:56;3.50;;;3.10;;
67804;SDS011;54603;45.638;11.714;2023-04-24T08:37:22;3.40;;;2.80;;
67804;SDS011;54603;45.638;11.714;2023-04-24T08:39:49;3.00;;;2.50;;
67804;SDS011;54603;45.638;11.714;2023-04-24T08:42:15;5.80;;;2.60;;
67804;SDS011;54603;45.638;11.714;2023-04-24T08:44:43;3.30;;;2.80;;
67804;SDS011;54603;45.638;11.714;2023-04-24T08:47:09;3.30;;;2.80;;
67804;SDS011;54603;45.638;11.714;2023-04-24T08:49:36;4.60;;;2.70;;
67804;SDS011;54603;45.638;11.714;2023-04-24T08:52:02;3.60;;;2.70;;
67804;SDS011;54603;45.638;11.714;2023-04-24T08:54:28;5.40;;;2.70;;
67804;SDS011;54603;45.638;11.714;2023-04-24T08:56:54;3.00;;;2.70;;
67804;SDS011;54603;45.638;11.714;2023-04-24T08:59:27;3.00;;;2.70;;
67804;SDS011;54603;45.638;11.714;2023-04-24T09:01:54;2.90;;;2.60;;
67804;SDS011;54603;45.638;11.714;2023-04-24T09:04:21;3.80;;;3.00;;
67804;SDS011;54603;45.638;11.714;2023-04-24T09:06:49;5.40;;;2.60;;
67804;SDS011;54603;45.638;11.714;2023-04-24T09:09:16;3.40;;;2.60;;
67804;SDS011;54603;45.638;11.714;2023-04-24T09:11:43;4.70;;;2.90;;
67804;SDS011;54603;45.638;11.714;2023-04-24T09:14:09;3.30;;;2.60;;
67804;SDS011;54603;45.638;11.714;2023-04-24T09:16:36;3.40;;;2.80;;
67804;SDS011;54603;45.638;11.714;2023-04-24T09:19:01;3.00;;;2.70;;
67804;SDS011;54603;45.638;11.714;2023-04-24T09:21:32;2.70;;;2.40;;
67804;SDS011;54603;45.638;11.714;2023-04-24T09:23:59;2.80;;;2.40;;
67804;SDS011;54603;45.638;11.714;2023-04-24T09:26:28;2.60;;;2.30;;
67804;SDS011;54603;45.638;11.714;2023-04-24T09:28:56;4.50;;;2.60;;
67804;SDS011;54603;45.638;11.714;2023-04-24T09:31:22;2.70;;;2.50;;
67804;SDS011;54603;45.638;11.714;2023-04-24T09:33:55;3.80;;;2.80;;
67804;SDS011;54603;45.638;11.714;2023-04-24T09:36:36;8.80;;;6.60;;
67804;SDS011;54603;45.638;11.714;2023-04-24T09:39:06;3.40;;;2.20;;
67804;SDS011;54603;45.638;11.714;2023-04-24T09:41:43;2.60;;;2.30;;
67804;SDS011;54603;45.638;11.714;2023-04-24T09:44:16;4.60;;;2.10;;
67804;SDS011;54603;45.638;11.714;2023-04-24T09:46:43;6.40;;;2.10;;
67804;SDS011;54603;45.638;11.714;2023-04-24T09:49:12;3.00;;;2.30;;
67804;SDS011;54603;45.638;11.714;2023-04-24T09:51:40;3.30;;;2.20;;
67804;SDS011;54603;45.638;11.714;2023-04-24T09:54:15;5.20;;;2.40;;
67804;SDS011;54603;45.638;11.714;2023-04-24T09:56:46;5.10;;;2.40;;
67804;SDS011;54603;45.638;11.714;2023-04-24T09:59:14;2.70;;;2.50;;
67804;SDS011;54603;45.638;11.714;2023-04-24T10:01:41;4.00;;;2.50;;
67804;SDS011;54603;45.638;11.714;2023-04-24T10:04:21;2.60;;;2.20;;
67804;SDS011;54603;45.638;11.714;2023-04-24T10:06:51;4.30;;;2.90;;
67804;SDS011;54603;45.638;11.714;2023-04-24T10:09:19;5.30;;;2.80;;
67804;SDS011;54603;45.638;11.714;2023-04-24T10:11:47;4.90;;;3.00;;
67804;SDS011;54603;45.638;11.714;2023-04-24T10:14:14;6.10;;;3.00;;
67804;SDS011;54603;45.638;11.714;2023-04-24T10:16:41;7.80;;;2.80;;
67804;SDS011;54603;45.638;11.714;2023-04-24T10:19:07;6.40;;;3.40;;
67804;SDS011;54603;45.638;11.714;2023-04-24T10:21:35;7.60;;;2.90;;
67804;SDS011;54603;45.638;11.714;2023-04-24T10:24:07;9.00;;;3.20;;
67804;SDS011;54603;45.638;11.714;2023-04-24T10:26:34;6.80;;;3.40;;
67804;SDS011;54603;45.638;11.714;2023-04-24T10:29:00;6.90;;;3.10;;
67804;SDS011;54603;45.638;11.714;2023-04-24T10:31:27;10.80;;;3.70;;
67804;SDS011;54603;45.638;11.714;2023-04-24T10:33:53;8.70;;;3.40;;
67804;SDS011;54603;45.638;11.714;2023-04-24T10:36:20;5.80;;;3.10;;
67804;SDS011;54603;45.638;11.714;2023-04-24T10:38:47;7.20;;;3.00;;
67804;SDS011;54603;45.638;11.714;2023-04-24T10:41:15;7.30;;;3.20;;
67804;SDS011;54603;45.638;11.714;2023-04-24T10:43:48;8.80;;;3.20;;
67804;SDS011;54603;45.638;11.714;2023-04-24T10:46:29;8.10;;;2.90;;
67804;SDS011;54603;45.638;11.714;2023-04-24T10:48:55;7.90;;;3.30;;
67804;SDS011;54603;45.638;11.714;2023-04-24T10:51:23;6.30;;;3.00;;
67804;SDS011;54603;45.638;11.714;2023-04-24T10:53:50;6.00;;;3.00;;
67804;SDS011;54603;45.638;11.714;2023-04-24T10:56:16;7.10;;;3.00;;
67804;SDS011;54603;45.638;11.714;2023-04-24T10:58:43;8.30;;;3.70;;
67804;SDS011;54603;45.638;11.714;2023-04-24T11:01:24;5.00;;;2.80;;
67804;SDS011;54603;45.638;11.714;2023-04-24T11:04:00;5.90;;;3.10;;
67804;SDS011;54603;45.638;11.714;2023-04-24T11:06:30;5.50;;;2.70;;
67804;SDS011;54603;45.638;11.714;2023-04-24T11:09:07;4.20;;;2.50;;
67804;SDS011;54603;45.638;11.714;2023-04-24T11:11:35;5.90;;;2.70;;
67804;SDS011;54603;45.638;11.714;2023-04-24T11:14:04;7.70;;;3.00;;
67804;SDS011;54603;45.638;11.714;2023-04-24T11:16:33;6.90;;;2.80;;
67804;SDS011;54603;45.638;11.714;2023-04-24T11:19:08;8.40;;;2.80;;
67804;SDS011;54603;45.638;11.714;2023-04-24T11:21:57;7.40;;;3.20;;
67804;SDS011;54603;45.638;11.714;2023-04-24T11:24:29;9.70;;;3.50;;
67804;SDS011;54603;45.638;11.714;2023-04-24T11:29:58;4.80;;;2.60;;
67804;SDS011;54603;45.638;11.714;2023-04-24T11:32:27;5.90;;;2.90;;
67804;SDS011;54603;45.638;11.714;2023-04-24T11:35:00;5.30;;;2.60;;
67804;SDS011;54603;45.638;11.714;2023-04-24T11:37:36;11.50;;;2.90;;
67804;SDS011;54603;45.638;11.714;2023-04-24T11:40:04;10.20;;;2.80;;
67804;SDS011;54603;45.638;11.714;2023-04-24T11:42:35;8.10;;;2.80;;
67804;SDS011;54603;45.638;11.714;2023-04-24T11:45:01;6.70;;;2.70;;
67804;SDS011;54603;45.638;11.714;2023-04-24T11:47:28;7.90;;;2.90;;
67804;SDS011;54603;45.638;11.714;2023-04-24T11:49:55;10.20;;;2.90;;
67804;SDS011;54603;45.638;11.714;2023-04-24T11:52:20;5.50;;;2.70;;
67804;SDS011;54603;45.638;11.714;2023-04-24T11:54:47;6.70;;;2.90;;
67804;SDS011;54603;45.638;11.714;2023-04-24T11:57:14;6.40;;;2.80;;
67804;SDS011;54603;45.638;11.714;2023-04-24T11:59:40;6.00;;;2.80;;
67804;SDS011;54603;45.638;11.714;2023-04-24T12:02:06;5.80;;;2.40;;
67804;SDS011;54603;45.638;11.714;2023-04-24T12:04:38;4.00;;;2.30;;
67804;SDS011;54603;45.638;11.714;2023-04-24T12:07:05;5.90;;;2.40;;
67804;SDS011;54603;45.638;11.714;2023-04-24T12:09:43;6.50;;;2.90;;
67804;SDS011;54603;45.638;11.714;2023-04-24T12:12:13;5.60;;;2.80;;
67804;SDS011;54603;45.638;11.714;2023-04-24T12:14:44;6.60;;;2.70;;
67804;SDS011;54603;45.638;11.714;2023-04-24T12:17:14;7.30;;;2.70;;
67804;SDS011;54603;45.638;11.714;2023-04-24T12:19:45;6.30;;;2.60;;
67804;SDS011;54603;45.638;11.714;2023-04-24T12:22:12;6.10;;;2.60;;
67804;SDS011;54603;45.638;11.714;2023-04-24T12:24:55;4.60;;;2.30;;
67804;SDS011;54603;45.638;11.714;2023-04-24T12:27:23;8.80;;;2.70;;
67804;SDS011;54603;45.638;11.714;2023-04-24T12:29:56;4.60;;;2.60;;
67804;SDS011;54603;45.638;11.714;2023-04-24T12:32:22;5.70;;;2.40;;
67804;SDS011;54603;45.638;11.714;2023-04-24T12:34:52;7.40;;;2.60;;
67804;SDS011;54603;45.638;11.714;2023-04-24T12:37:18;6.30;;;3.00;;
67804;SDS011;54603;45.638;11.714;2023-04-24T12:42:32;6.60;;;2.40;;
67804;SDS011;54603;45.638;11.714;2023-04-24T12:44:59;4.80;;;2.50;;
67804;SDS011;54603;45.638;11.714;2023-04-24T12:47:27;4.60;;;2.60;;
67804;SDS011;54603;45.638;11.714;2023-04-24T12:49:54;5.80;;;2.50;;
67804;SDS011;54603;45.638;11.714;2023-04-24T12:52:23;4.60;;;2.60;;
67804;SDS011;54603;45.638;11.714;2023-04-24T12:54:50;5.70;;;2.10;;
67804;SDS011;54603;45.638;11.714;2023-04-24T12:57:18;5.40;;;2.30;;
67804;SDS011;54603;45.638;11.714;2023-04-24T12:59:43;5.30;;;2.50;;
67804;SDS011;54603;45.638;11.714;2023-04-24T13:02:09;5.20;;;2.30;;
67804;SDS011;54603;45.638;11.714;2023-04-24T13:04:36;6.30;;;2.80;;
67804;SDS011;54603;45.638;11.714;2023-04-24T13:07:02;3.60;;;2.20;;
67804;SDS011;54603;45.638;11.714;2023-04-24T13:09:27;6.90;;;2.40;;
67804;SDS011;54603;45.638;11.714;2023-04-24T13:11:53;4.50;;;2.10;;
67804;SDS011;54603;45.638;11.714;2023-04-24T13:14:21;4.80;;;2.70;;
67804;SDS011;54603;45.638;11.714;2023-04-24T13:16:47;4.40;;;2.40;;
67804;SDS011;54603;45.638;11.714;2023-04-24T13:19:13;8.20;;;2.40;;
67804;SDS011;54603;45.638;11.714;2023-04-24T13:21:39;3.60;;;2.20;;
67804;SDS011;54603;45.638;11.714;2023-04-24T13:24:04;4.80;;;2.20;;
67804;SDS011;54603;45.638;11.714;2023-04-24T13:26:33;3.80;;;2.40;;
67804;SDS011;54603;45.638;11.714;2023-04-24T13:28:58;4.50;;;2.20;;
67804;SDS011;54603;45.638;11.714;2023-04-24T13:31:24;6.80;;;2.40;;
67804;SDS011;54603;45.638;11.714;2023-04-24T13:33:50;3.00;;;2.10;;
67804;SDS011;54603;45.638;11.714;2023-04-24T13:36:15;4.50;;;2.30;;
67804;SDS011;54603;45.638;11.714;2023-04-24T13:38:42;4.20;;;2.40;;
67804;SDS011;54603;45.638;11.714;2023-04-24T13:41:10;5.60;;;2.20;;
67804;SDS011;54603;45.638;11.714;2023-04-24T13:43:37;3.10;;;2.00;;
67804;SDS011;54603;45.638;11.714;2023-04-24T13:46:08;4.50;;;2.50;;
67804;SDS011;54603;45.638;11.714;2023-04-24T13:48:34;7.00;;;4.50;;
67804;SDS011;54603;45.638;11.714;2023-04-24T13:51:01;19.20;;;8.80;;
67804;SDS011;54603;45.638;11.714;2023-04-24T13:53:27;10.60;;;6.40;;
67804;SDS011;54603;45.638;11.714;2023-04-24T13:55:53;11.00;;;6.70;;
67804;SDS011;54603;45.638;11.714;2023-04-24T13:58:19;10.00;;;5.70;;
67804;SDS011;54603;45.638;11.714;2023-04-24T14:00:47;10.90;;;5.40;;
67804;SDS011;54603;45.638;11.714;2023-04-24T14:03:15;10.70;;;5.60;;
67804;SDS011;54603;45.638;11.714;2023-04-24T14:05:41;10.20;;;4.90;;
67804;SDS011;54603;45.638;11.714;2023-04-24T14:08:07;9.80;;;5.30;;
67804;SDS011;54603;45.638;11.714;2023-04-24T14:10:32;8.00;;;4.40;;
67804;SDS011;54603;45.638;11.714;2023-04-24T14:12:58;8.10;;;4.40;;
67804;SDS011;54603;45.638;11.714;2023-04-24T14:15:23;7.40;;;4.30;;
67804;SDS011;54603;45.638;11.714;2023-04-24T14:17:49;8.80;;;4.30;;
67804;SDS011;54603;45.638;11.714;2023-04-24T14:20:15;7.70;;;4.20;;
67804;SDS011;54603;45.638;11.714;2023-04-24T14:22:40;8.20;;;3.90;;
67804;SDS011;54603;45.638;11.714;2023-04-24T14:25:06;8.00;;;3.40;;
67804;SDS011;54603;45.638;11.714;2023-04-24T14:27:32;8.00;;;3.80;;
67804;SDS011;54603;45.638;11.714;2023-04-24T14:29:59;5.60;;;3.50;;
67804;SDS011;54603;45.638;11.714;2023-04-24T14:32:25;5.80;;;3.30;;
67804;SDS011;54603;45.638;11.714;2023-04-24T14:34:51;5.70;;;3.20;;
67804;SDS011;54603;45.638;11.714;2023-04-24T14:37:16;6.60;;;3.40;;
67804;SDS011;54603;45.638;11.714;2023-04-24T14:39:42;7.10;;;3.20;;